Terminal Aerodrome Forecast
Issued by NWS

Home | Current Version | Previous Version | Text Only | Print | Product List | Glossary On
Versions: 1 2 3 4 5 6 7 8 9 10 11 12 13 14 15
000
FTUS45 KABQ 280500
TAFLVS
TAF
KLVS 280538Z 2806/2906 02010KT P6SM VCSH BKN060 BKN090
     FM280900 11006KT P6SM BKN030
     FM281600 19011KT P6SM SCT060 BKN130
     FM282100 19011G18KT P6SM VCTS BKN060CB OVC120
     FM290100 16010KT P6SM VCSH BKN060=

USA.gov is the U.S. government's official web portal to all federal, state and local government web resources and services.